Time;durP1;ratioP1;P1;durP2;ratioP2;P2;SDS_P1;SDS_P2;PMS_P1;PMS_P2;Temp;Humidity;BMP_temperature;BMP_pressure;BME280_temperature;BME280_humidity;BME280_pressure;Samples;Min_cycle;Max_cycle;Signal;HPM_P1;HPM_P2
2022/12/25 00:00:31;;;;;;;4.80;2.08;;;19.90;57.40;;;;;;5072022;28;20189;-63
2022/12/25 00:02:57;;;;;;;5.57;1.50;;;19.90;57.40;;;;;;5071749;28;20155;-63
2022/12/25 00:05:22;;;;;;;4.53;1.60;;;19.90;57.40;;;;;;5071908;28;20085;-63
2022/12/25 00:07:48;;;;;;;5.13;1.73;;;19.90;57.40;;;;;;5072318;28;20086;-63
2022/12/25 00:10:17;;;;;;;7.53;1.90;;;19.90;57.40;;;;;;5069802;28;20435;-62
2022/12/25 00:12:46;;;;;;;3.78;1.48;;;19.90;57.40;;;;;;5072052;28;20056;-62
2022/12/25 00:15:12;;;;;;;4.75;1.50;;;19.90;57.40;;;;;;5053404;28;20055;-63
2022/12/25 00:17:42;;;;;;;4.53;1.42;;;19.80;57.40;;;;;;5071125;28;20442;-63
2022/12/25 00:20:11;;;;;;;6.28;2.05;;;19.80;57.40;;;;;;5071660;28;20400;-63
2022/12/25 00:22:36;;;;;;;4.93;2.20;;;19.80;57.40;;;;;;5072223;28;20480;-63
2022/12/25 00:25:02;;;;;;;5.18;1.88;;;19.80;57.50;;;;;;5071018;28;20492;-62
2022/12/25 00:27:31;;;;;;;6.22;2.05;;;19.80;57.50;;;;;;5071665;28;20151;-63
2022/12/25 00:29:57;;;;;;;3.85;1.55;;;19.70;57.40;;;;;;5071916;28;20049;-62
2022/12/25 00:32:22;;;;;;;4.38;1.77;;;19.80;57.50;;;;;;5069389;28;20098;-62
2022/12/25 00:34:48;;;;;;;4.38;1.63;;;19.70;57.40;;;;;;5070479;28;20068;-63
2022/12/25 00:37:14;;;;;;;6.22;1.85;;;19.70;57.40;;;;;;5071939;28;20044;-62
2022/12/25 00:39:39;;;;;;;5.00;1.70;;;19.70;57.40;;;;;;5071323;28;20033;-63
2022/12/25 00:42:20;;;;;;;5.00;1.70;;;19.70;57.40;;;;;;5071884;28;20045;-62
2022/12/25 00:44:46;;;;;;;5.68;1.77;;;19.70;57.40;;;;;;5071424;28;20419;-62
2022/12/25 00:47:12;;;;;;;5.22;1.77;;;19.70;57.40;;;;;;5069482;28;20044;-63
2022/12/25 00:49:37;;;;;;;4.63;1.60;;;19.70;57.70;;;;;;5071813;28;20048;-62
2022/12/25 00:52:03;;;;;;;5.35;1.75;;;19.70;57.40;;;;;;5071160;28;20047;-63
2022/12/25 00:54:29;;;;;;;6.18;1.80;;;19.60;57.40;;;;;;5069683;28;20081;-63
2022/12/25 00:56:54;;;;;;;5.03;2.20;;;19.60;57.40;;;;;;5073801;28;20072;-63
2022/12/25 00:59:20;;;;;;;5.72;1.70;;;19.60;57.30;;;;;;5074935;28;20118;-63
2022/12/25 01:01:45;;;;;;;4.88;1.85;;;19.60;57.30;;;;;;5074144;28;20044;-63
2022/12/25 01:04:11;;;;;;;11.75;1.85;;;19.60;57.40;;;;;;5075136;28;20048;-63
2022/12/25 01:06:37;;;;;;;4.05;1.83;;;19.60;57.30;;;;;;5074906;28;20044;-63
2022/12/25 01:11:47;;;;;;;5.88;1.88;;;19.60;57.30;;;;;;5074247;28;20412;-62
2022/12/25 01:14:12;;;;;;;4.75;2.00;;;19.60;57.30;;;;;;5073900;28;20495;-63
2022/12/25 01:16:38;;;;;;;5.72;1.85;;;19.60;57.30;;;;;;5075127;28;20052;-62
2022/12/25 01:19:04;;;;;;;3.95;1.30;;;19.50;57.30;;;;;;5074994;28;20048;-63
2022/12/25 01:21:29;;;;;;;4.25;1.30;;;19.50;57.30;;;;;;5074153;28;20506;-63
2022/12/25 01:23:55;;;;;;;3.95;1.65;;;19.50;57.30;;;;;;5075418;28;20043;-63
2022/12/25 01:26:22;;;;;;;3.40;1.40;;;19.50;57.90;;;;;;5073636;28;20040;-63
2022/12/25 01:28:48;;;;;;;3.92;1.80;;;19.50;57.30;;;;;;5074396;28;20048;-63
2022/12/25 01:31:14;;;;;;;3.83;1.77;;;19.50;57.20;;;;;;5074740;28;20052;-63
2022/12/25 01:33:41;;;;;;;5.25;1.70;;;19.50;57.20;;;;;;5074679;28;20045;-63
2022/12/25 01:36:17;;;;;;;3.13;1.70;;;19.50;57.20;;;;;;5074124;28;20105;-63
2022/12/25 01:38:43;;;;;;;4.57;1.73;;;19.50;57.20;;;;;;5075053;28;20080;-63
2022/12/25 01:41:10;;;;;;;3.95;1.42;;;19.40;57.20;;;;;;5072474;28;20481;-63
2022/12/25 01:44:04;;;;;;;3.72;1.42;;;19.40;57.20;;;;;;5075051;28;20059;-62
2022/12/25 01:46:30;;;;;;;5.13;1.77;;;19.40;57.10;;;;;;5074680;28;20092;-63
2022/12/25 01:48:58;;;;;;;4.60;1.65;;;19.40;57.20;;;;;;5072086;28;20719;-62
2022/12/25 01:51:28;;;;;;;5.47;2.10;;;19.40;57.10;;;;;;5073255;28;20052;-62
2022/12/25 01:53:54;;;;;;;4.68;1.60;;;19.40;57.20;;;;;;5056995;28;20086;-63
2022/12/25 01:56:19;;;;;;;4.15;1.67;;;19.40;57.10;;;;;;5072470;28;20041;-63
2022/12/25 01:58:45;;;;;;;4.07;1.67;;;19.40;57.10;;;;;;5073237;28;20098;-62
2022/12/25 02:01:10;;;;;;;5.78;1.92;;;19.40;57.10;;;;;;5073865;28;20036;-63
2022/12/25 02:03:36;;;;;;;3.80;1.65;;;19.40;57.10;;;;;;5072677;28;20047;-63
2022/12/25 02:06:02;;;;;;;3.88;1.58;;;19.40;57.10;;;;;;5074707;28;20117;-63
2022/12/25 02:08:28;;;;;;;4.15;1.83;;;19.40;57.10;;;;;;5071906;28;20079;-62
2022/12/25 02:10:54;;;;;;;5.20;1.73;;;19.30;57.00;;;;;;5072449;28;20072;-62
2022/12/25 02:13:19;;;;;;;2.72;1.20;;;19.40;57.10;;;;;;5047401;28;20053;-63
2022/12/25 02:16:04;;;;;;;4.55;1.90;;;19.30;57.00;;;;;;5052445;28;20103;-62
2022/12/25 02:18:42;;;;;;;5.22;1.80;;;19.30;57.00;;;;;;5035326;28;20052;-62
2022/12/25 02:21:38;;;;;;;2.33;1.58;;;19.30;56.90;;;;;;5052783;28;20044;-62
2022/12/25 02:24:30;;;;;;;4.15;1.60;;;19.30;57.00;;;;;;5053297;28;20049;-62
2022/12/25 02:27:17;;;;;;;4.72;1.70;;;19.30;57.00;;;;;;5052817;28;20037;-62
2022/12/25 02:29:52;;;;;;;6.10;1.73;;;19.30;57.70;;;;;;5054128;28;20041;-62
2022/12/25 02:32:27;;;;;;;4.45;1.55;;;19.30;56.90;;;;;;5052842;28;20048;-62
2022/12/25 02:35:06;;;;;;;4.72;1.80;;;19.30;56.90;;;;;;5052667;28;20040;-62
2022/12/25 02:37:48;;;;;;;4.63;1.48;;;19.30;57.00;;;;;;5063934;28;20572;-62
2022/12/25 02:40:46;;;;;;;3.67;1.70;;;19.30;57.00;;;;;;5072595;28;20098;-62
2022/12/25 03:08:25;;;;;;;4.32;1.50;;;19.20;56.90;;;;;;5032307;28;20120;-62
2022/12/25 03:13:47;;;;;;;3.88;1.70;;;19.20;56.90;;;;;;5031312;28;20057;-63
2022/12/25 03:18:58;;;;;;;3.00;1.38;;;19.10;56.80;;;;;;5032157;28;20136;-62
2022/12/25 03:26:57;;;;;;;3.90;1.80;;;19.10;56.90;;;;;;5032496;28;20152;-62
2022/12/25 03:32:38;;;;;;;5.25;1.83;;;19.20;56.90;;;;;;5032762;28;20041;-62
2022/12/25 03:35:24;;;;;;;3.40;1.27;;;19.10;56.90;;;;;;5031804;28;20493;-62
2022/12/25 04:36:54;;;;;;;3.28;1.40;;;19.40;56.80;;;;;;5030337;28;20081;-62
2022/12/25 04:39:20;;;;;;;4.65;1.58;;;19.40;56.80;;;;;;5029970;28;20077;-62
2022/12/25 04:41:46;;;;;;;4.07;1.23;;;19.40;56.80;;;;;;5030646;28;20037;-62
2022/12/25 04:44:14;;;;;;;4.57;1.40;;;19.50;56.80;;;;;;5029876;28;20193;-62
2022/12/25 04:46:40;;;;;;;3.47;1.40;;;19.50;56.90;;;;;;5032188;28;20136;-62
2022/12/25 04:49:06;;;;;;;4.32;1.52;;;19.50;56.90;;;;;;5032142;28;20071;-62
2022/12/25 04:51:31;;;;;;;3.25;1.35;;;19.50;56.80;;;;;;5029666;28;20046;-62
2022/12/25 04:53:57;;;;;;;2.53;1.17;;;19.50;56.80;;;;;;5031500;28;20050;-63
2022/12/25 04:56:22;;;;;;;3.40;1.13;;;19.50;56.80;;;;;;5030075;28;20534;-63
2022/12/25 04:58:48;;;;;;;3.00;1.42;;;19.60;56.90;;;;;;5031098;28;20045;-62
2022/12/25 05:01:14;;;;;;;3.95;1.35;;;19.60;56.90;;;;;;5035427;28;20084;-62
2022/12/25 05:03:39;;;;;;;3.28;1.50;;;19.60;56.80;;;;;;5053524;28;20080;-63
2022/12/25 05:06:05;;;;;;;3.38;1.27;;;19.60;56.80;;;;;;5050188;28;20504;-62
2022/12/25 05:08:31;;;;;;;3.13;1.55;;;19.60;56.80;;;;;;5050804;28;20090;-63
2022/12/25 05:10:57;;;;;;;2.97;1.20;;;19.60;56.80;;;;;;5051302;28;20493;-63
2022/12/25 05:13:23;;;;;;;2.88;1.30;;;19.60;56.80;;;;;;5050279;28;20095;-62
2022/12/25 05:15:48;;;;;;;3.53;1.20;;;19.70;56.80;;;;;;5051559;28;20049;-62
2022/12/25 05:18:14;;;;;;;4.65;1.83;;;19.70;56.80;;;;;;5051212;28;20048;-62
2022/12/25 05:20:39;;;;;;;3.55;1.42;;;19.70;56.80;;;;;;5050790;28;20396;-62
2022/12/25 05:23:05;;;;;;;3.05;1.10;;;19.70;56.80;;;;;;5051413;28;20041;-62
2022/12/25 05:25:31;;;;;;;3.00;1.23;;;19.70;56.80;;;;;;5049954;28;20048;-62
2022/12/25 05:27:56;;;;;;;4.20;1.30;;;19.70;56.80;;;;;;5050972;28;20182;-62
2022/12/25 05:30:22;;;;;;;3.33;1.38;;;19.70;56.70;;;;;;5051244;28;20053;-62
2022/12/25 05:32:47;;;;;;;4.60;1.27;;;19.70;56.70;;;;;;5046909;28;20044;-62
2022/12/25 05:35:13;;;;;;;3.63;1.30;;;19.80;56.80;;;;;;5050629;28;20041;-62
2022/12/25 05:37:39;;;;;;;5.78;1.48;;;19.80;56.80;;;;;;5050157;28;20072;-62
2022/12/25 05:40:05;;;;;;;4.60;1.60;;;19.80;56.80;;;;;;5050365;28;20124;-62
2022/12/25 05:42:30;;;;;;;3.03;1.33;;;19.80;56.80;;;;;;5051587;28;20048;-62
2022/12/25 05:44:56;;;;;;;3.85;1.13;;;19.80;56.70;;;;;;5055063;28;20044;-62
2022/12/25 05:47:21;;;;;;;6.15;1.20;;;19.80;56.80;;;;;;5051545;28;20128;-62
2022/12/25 05:49:47;;;;;;;4.43;1.52;;;19.90;56.90;;;;;;5054702;28;20040;-62
2022/12/25 05:52:13;;;;;;;6.97;1.52;;;19.90;56.90;;;;;;5054185;28;20045;-62
2022/12/25 05:54:38;;;;;;;3.78;1.35;;;19.90;56.90;;;;;;5054111;28;20055;-62
2022/12/25 05:57:04;;;;;;;4.75;1.30;;;19.90;56.80;;;;;;5054780;28;20033;-62
2022/12/25 05:59:30;;;;;;;4.10;1.25;;;19.90;56.70;;;;;;5054572;28;20037;-63
2022/12/25 06:01:55;;;;;;;5.40;1.23;;;20.00;56.80;;;;;;5053916;28;20071;-62
2022/12/25 06:04:21;;;;;;;6.57;1.60;;;20.00;56.70;;;;;;5054043;28;20076;-62
2022/12/25 06:06:47;;;;;;;7.18;1.80;;;20.00;56.70;;;;;;5054422;28;20041;-63
2022/12/25 06:09:12;;;;;;;4.90;1.27;;;20.10;56.70;;;;;;5053588;28;20075;-63
2022/12/25 06:11:38;;;;;;;4.22;1.30;;;20.10;56.70;;;;;;5054319;28;20053;-63
2022/12/25 06:14:04;;;;;;;6.55;1.70;;;20.10;56.70;;;;;;5054176;28;20057;-62
2022/12/25 06:16:30;;;;;;;3.60;1.15;;;20.20;56.90;;;;;;5053458;28;20045;-63
2022/12/25 06:18:55;;;;;;;3.83;1.55;;;20.20;56.90;;;;;;5052859;28;20045;-63
2022/12/25 06:21:21;;;;;;;4.35;1.15;;;20.20;56.90;;;;;;5054384;28;20095;-63
2022/12/25 06:23:46;;;;;;;3.92;1.20;;;20.20;56.90;;;;;;5053503;28;20465;-63
2022/12/25 06:26:14;;;;;;;3.83;1.45;;;20.20;56.90;;;;;;5052378;28;20045;-67
2022/12/25 06:28:40;;;;;;;6.30;1.88;;;20.30;57.00;;;;;;5060186;28;20101;-64
2022/12/25 06:31:07;;;;;;;4.32;1.20;;;20.30;56.90;;;;;;5073090;28;20462;-66
2022/12/25 06:33:32;;;;;;;3.30;1.30;;;20.30;56.90;;;;;;5064317;28;20047;-66
2022/12/25 06:35:58;;;;;;;4.72;1.40;;;20.30;57.00;;;;;;5053464;28;20143;-66
2022/12/25 06:38:23;;;;;;;3.60;1.30;;;20.30;57.10;;;;;;5049813;28;20036;-66
2022/12/25 06:40:49;;;;;;;6.28;1.30;;;20.30;57.10;;;;;;5052186;28;20047;-63
2022/12/25 06:43:14;;;;;;;6.57;1.67;;;20.40;57.20;;;;;;5052490;28;20507;-63
2022/12/25 06:45:40;;;;;;;3.13;1.30;;;20.40;57.20;;;;;;5052828;28;20404;-63
2022/12/25 06:48:05;;;;;;;5.47;1.27;;;20.40;57.10;;;;;;5046276;28;20041;-63
2022/12/25 06:50:31;;;;;;;3.88;1.30;;;20.40;57.20;;;;;;5053275;28;20052;-63
2022/12/25 06:52:56;;;;;;;3.65;1.27;;;20.40;57.20;;;;;;5051271;28;20048;-63
2022/12/25 06:55:22;;;;;;;5.15;1.30;;;20.40;57.30;;;;;;5053257;28;20392;-63
2022/12/25 06:57:47;;;;;;;7.97;1.25;;;20.50;57.40;;;;;;5052650;28;20055;-65
2022/12/25 07:00:13;;;;;;;4.88;1.10;;;20.50;57.50;;;;;;5053187;28;20076;-64
2022/12/25 07:02:40;;;;;;;3.60;1.23;;;20.50;57.40;;;;;;5044765;28;20060;-63
2022/12/25 07:05:06;;;;;;;3.50;1.20;;;20.50;57.40;;;;;;5025340;28;20037;-64
2022/12/25 07:07:31;;;;;;;6.78;1.30;;;20.50;57.30;;;;;;5054968;28;20102;-64
2022/12/25 07:09:57;;;;;;;4.00;1.02;;;20.50;57.20;;;;;;5054702;28;20068;-64
2022/12/25 07:12:23;;;;;;;2.65;1.15;;;20.50;57.20;;;;;;5052639;28;20396;-64
2022/12/25 07:14:48;;;;;;;6.65;1.10;;;20.50;57.20;;;;;;5052439;28;20083;-63
2022/12/25 07:17:17;;;;;;;3.17;1.05;;;20.50;57.20;;;;;;5052584;28;20053;-64
2022/12/25 07:19:43;;;;;;;3.08;0.90;;;20.60;57.20;;;;;;5050703;28;20045;-63
2022/12/25 07:22:09;;;;;;;3.72;1.30;;;20.50;57.10;;;;;;5051423;28;20064;-63
2022/12/25 07:24:34;;;;;;;3.58;1.25;;;20.60;57.20;;;;;;5053032;28;20044;-63
2022/12/25 07:27:00;;;;;;;4.13;1.52;;;20.60;57.10;;;;;;5052289;28;20044;-63
2022/12/25 07:29:25;;;;;;;4.78;1.05;;;20.60;57.00;;;;;;5051176;28;20052;-62
2022/12/25 07:31:51;;;;;;;3.38;1.00;;;20.60;57.00;;;;;;5052760;28;20047;-62
2022/12/25 07:34:17;;;;;;;3.28;1.17;;;20.60;56.90;;;;;;5050327;28;20041;-62
2022/12/25 07:36:42;;;;;;;3.35;1.20;;;20.60;56.90;;;;;;5052932;28;20037;-64
2022/12/25 07:39:09;;;;;;;4.25;1.55;;;20.60;56.90;;;;;;5052940;28;20480;-63
2022/12/25 07:41:35;;;;;;;4.68;1.20;;;20.60;56.90;;;;;;5051956;28;20037;-63
2022/12/25 07:44:01;;;;;;;4.43;1.25;;;20.60;56.90;;;;;;5052707;28;20102;-63
2022/12/25 07:46:27;;;;;;;3.70;1.10;;;20.60;56.90;;;;;;5051105;28;20396;-63
2022/12/25 07:48:52;;;;;;;7.25;1.33;;;20.60;56.90;;;;;;5050449;28;20060;-63
2022/12/25 07:51:18;;;;;;;4.43;1.13;;;20.60;56.90;;;;;;5046785;28;20049;-63
2022/12/25 07:53:44;;;;;;;3.25;1.10;;;20.60;56.90;;;;;;5052074;28;20048;-62
2022/12/25 07:56:14;;;;;;;5.75;1.33;;;20.60;56.90;;;;;;5051309;28;20037;-63
2022/12/25 07:58:41;;;;;;;6.88;1.40;;;20.60;57.00;;;;;;5052716;28;20049;-63
2022/12/25 08:01:09;;;;;;;6.13;1.35;;;20.60;57.10;;;;;;5051526;28;20416;-63
2022/12/25 08:03:34;;;;;;;;;;;20.60;57.10;;;;;;5050970;28;20099;-63
2022/12/25 08:06:01;;;;;;;4.22;1.15;;;20.60;57.20;;;;;;5051698;28;20372;-63
2022/12/25 08:08:27;;;;;;;5.38;1.20;;;20.60;57.10;;;;;;5051132;28;20087;-63
2022/12/25 08:10:52;;;;;;;4.50;1.33;;;20.60;57.20;;;;;;5052467;28;20041;-63
2022/12/25 08:13:18;;;;;;;3.85;1.58;;;20.70;57.30;;;;;;5051977;28;20059;-63
2022/12/25 08:15:43;;;;;;;4.75;1.60;;;20.60;57.20;;;;;;5051530;28;20040;-63
2022/12/25 08:18:09;;;;;;;6.05;1.45;;;20.60;57.30;;;;;;5049478;28;20456;-67
2022/12/25 08:20:35;;;;;;;7.03;1.95;;;20.60;57.30;;;;;;5051616;28;20037;-65
2022/12/25 08:23:00;;;;;;;6.72;2.00;;;20.60;57.50;;;;;;5050753;28;20033;-64
2022/12/25 08:25:26;;;;;;;5.82;1.88;;;20.60;57.50;;;;;;5050103;28;20400;-65
2022/12/25 08:27:51;;;;;;;9.88;2.33;;;20.60;57.60;;;;;;5050995;28;20095;-65
2022/12/25 08:30:17;;;;;;;5.18;2.20;;;20.60;57.60;;;;;;5049774;28;20496;-65
2022/12/25 08:32:42;;;;;;;6.50;1.90;;;20.60;57.60;;;;;;5051977;28;20393;-64
2022/12/25 08:35:08;;;;;;;9.57;2.20;;;20.60;57.60;;;;;;5051742;28;20143;-67
2022/12/25 08:37:34;;;;;;;9.15;2.20;;;20.60;57.60;;;;;;5050709;28;20408;-62
2022/12/25 08:39:59;;;;;;;9.73;2.42;;;20.70;57.60;;;;;;5051574;28;20029;-61
2022/12/25 08:42:25;;;;;;;8.48;2.35;;;20.60;57.70;;;;;;5050059;28;20467;-63
2022/12/25 08:44:50;;;;;;;7.15;2.13;;;20.60;58.60;;;;;;5051206;28;20048;-64
2022/12/25 08:47:16;;;;;;;7.95;2.13;;;20.70;58.00;;;;;;5050978;28;20400;-63
2022/12/25 08:49:41;;;;;;;7.00;2.15;;;20.70;58.10;;;;;;5051236;28;20115;-64
2022/12/25 08:52:07;;;;;;;7.43;2.10;;;20.70;58.10;;;;;;5045719;28;20099;-64
2022/12/25 08:54:35;;;;;;;7.03;2.00;;;20.70;58.20;;;;;;5051563;28;20044;-64
2022/12/25 08:57:03;;;;;;;6.55;2.10;;;20.70;58.20;;;;;;5049910;28;20044;-64
2022/12/25 08:59:29;;;;;;;8.43;2.40;;;20.70;58.30;;;;;;5050634;28;20048;-64
2022/12/25 09:01:54;;;;;;;5.75;1.88;;;20.70;58.20;;;;;;5051080;28;20059;-64
2022/12/25 09:04:20;;;;;;;7.28;2.10;;;20.70;58.30;;;;;;5050400;28;20080;-65
2022/12/25 09:06:45;;;;;;;6.70;1.70;;;20.70;58.30;;;;;;5051710;28;20393;-64
2022/12/25 09:09:11;;;;;;;6.57;2.30;;;20.70;58.30;;;;;;5051521;28;20131;-65
2022/12/25 09:11:36;;;;;;;5.25;2.00;;;20.70;58.30;;;;;;5049533;28;20060;-65
2022/12/25 09:14:02;;;;;;;4.75;1.90;;;20.70;58.30;;;;;;5050855;28;20057;-65
2022/12/25 09:16:28;;;;;;;5.78;1.70;;;20.70;59.00;;;;;;5049408;28;20471;-64
2022/12/25 09:18:54;;;;;;;6.53;2.00;;;20.70;58.30;;;;;;5052863;28;20053;-64
2022/12/25 09:21:20;;;;;;;5.07;2.00;;;20.70;58.30;;;;;;5053588;28;20049;-65
2022/12/25 09:23:45;;;;;;;7.78;1.90;;;20.70;58.30;;;;;;5055306;28;20122;-62
2022/12/25 09:26:13;;;;;;;7.10;2.45;;;20.70;58.30;;;;;;5054192;28;20044;-63
2022/12/25 09:28:39;;;;;;;3.95;1.63;;;20.60;58.30;;;;;;5053965;28;20052;-64
2022/12/25 09:31:05;;;;;;;5.55;1.58;;;20.70;58.40;;;;;;5054888;28;20358;-63
2022/12/25 09:33:30;;;;;;;5.10;2.05;;;20.70;58.40;;;;;;5053400;28;20497;-64
2022/12/25 09:35:57;;;;;;;5.18;1.70;;;20.60;58.40;;;;;;5055150;28;20119;-64
2022/12/25 09:38:23;;;;;;;5.40;2.13;;;20.60;58.50;;;;;;5054130;28;20060;-63
2022/12/25 09:41:16;;;;;;;5.05;1.83;;;20.60;58.50;;;;;;5053991;28;20041;-63
2022/12/25 09:43:46;;;;;;;7.55;1.77;;;20.60;58.50;;;;;;5052146;28;20079;-63
2022/12/25 09:46:17;;;;;;;8.00;1.90;;;20.60;58.50;;;;;;5050584;28;20048;-63
2022/12/25 09:48:47;;;;;;;3.45;1.42;;;20.60;58.40;;;;;;5052514;28;20116;-64
2022/12/25 09:51:13;;;;;;;7.13;2.13;;;20.60;59.00;;;;;;5033714;28;20037;-64
2022/12/25 09:53:42;;;;;;;7.07;1.45;;;20.60;58.30;;;;;;5052520;28;20044;-61
2022/12/25 09:56:18;;;;;;;3.50;1.33;;;20.60;58.40;;;;;;5052030;28;20041;-61
2022/12/25 09:58:44;;;;;;;5.07;2.10;;;20.60;58.50;;;;;;5052606;28;20049;-64
2022/12/25 10:01:15;;;;;;;7.88;1.73;;;20.60;58.50;;;;;;5052977;28;20126;-65
2022/12/25 10:03:42;;;;;;;4.90;1.67;;;20.60;58.50;;;;;;5051093;28;20053;-75
2022/12/25 10:06:53;;;;;;;5.75;1.70;;;20.60;58.40;;;;;;5050395;28;20044;-71
2022/12/25 10:09:28;;;;;;;4.25;1.45;;;20.60;58.40;;;;;;4994883;28;20050;-70
2022/12/25 10:12:03;;;;;;;6.13;1.75;;;20.60;58.50;;;;;;4979470;28;20045;-71
2022/12/25 10:14:56;;;;;;;4.88;1.60;;;20.60;58.60;;;;;;5039609;28;20049;-72
2022/12/25 10:17:30;;;;;;;5.68;1.50;;;20.60;58.60;;;;;;5033358;28;20160;-71
2022/12/25 10:20:09;;;;;;;4.82;1.35;;;20.60;58.60;;;;;;5033165;28;20440;-68
2022/12/25 10:22:49;;;;;;;6.43;1.77;;;20.60;58.50;;;;;;5036403;28;20489;-61
2022/12/25 10:25:24;;;;;;;7.40;1.73;;;20.60;58.50;;;;;;5072385;28;20041;-63
2022/12/25 10:27:58;;;;;;;5.10;1.45;;;20.50;58.40;;;;;;5072385;28;20491;-63
2022/12/25 10:30:25;;;;;;;5.70;1.73;;;20.50;58.30;;;;;;5071805;28;20119;-62
2022/12/25 10:32:51;;;;;;;12.40;2.53;;;20.50;58.30;;;;;;5072620;28;20476;-62
2022/12/25 10:35:19;;;;;;;6.78;2.08;;;20.60;58.30;;;;;;5073748;28;20043;-62
2022/12/25 10:37:47;;;;;;;7.00;1.67;;;20.50;58.10;;;;;;5071901;28;20041;-63
2022/12/25 10:40:29;;;;;;;6.63;1.83;;;20.50;58.10;;;;;;5072563;28;20044;-63
2022/12/25 10:42:58;;;;;;;7.18;2.03;;;20.50;57.90;;;;;;5071983;28;20529;-62
2022/12/25 10:45:24;;;;;;;6.38;1.83;;;20.50;57.80;;;;;;5072367;28;20045;-63
2022/12/25 10:47:49;;;;;;;5.93;1.80;;;20.40;57.70;;;;;;5061610;28;20044;-66
2022/12/25 10:50:20;;;;;;;5.70;1.63;;;20.40;57.70;;;;;;5049267;28;20048;-67
2022/12/25 10:53:04;;;;;;;4.18;1.73;;;20.40;57.50;;;;;;5043459;28;20127;-62
2022/12/25 10:55:31;;;;;;;4.05;1.55;;;20.40;57.20;;;;;;5056856;28;20037;-65
2022/12/25 10:57:57;;;;;;;7.00;1.77;;;20.40;57.50;;;;;;5055288;28;20522;-64
2022/12/25 11:00:28;;;;;;;5.38;2.22;;;20.40;57.30;;;;;;5044875;28;20051;-61
2022/12/25 11:02:53;;;;;;;4.88;1.83;;;20.40;57.20;;;;;;5054211;28;20124;-62
2022/12/25 11:05:30;;;;;;;5.85;2.13;;;20.40;57.30;;;;;;5032471;28;20171;-62
2022/12/25 11:07:55;;;;;;;5.47;1.90;;;20.40;57.00;;;;;;5046879;28;20049;-68
2022/12/25 11:10:31;;;;;;;7.88;1.88;;;20.40;57.10;;;;;;5033945;28;20039;-61
2022/12/25 11:12:58;;;;;;;8.27;2.00;;;20.30;57.00;;;;;;5050693;28;20065;-60
2022/12/25 11:15:42;;;;;;;4.13;1.85;;;20.40;57.20;;;;;;5051311;28;20041;-61
2022/12/25 11:18:18;;;;;;;8.63;2.30;;;20.30;56.90;;;;;;5052252;28;20044;-63
2022/12/25 11:20:51;;;;;;;11.68;1.80;;;20.40;57.20;;;;;;5052875;28;20052;-62
2022/12/25 11:23:21;;;;;;;9.40;2.70;;;20.30;57.50;;;;;;5052840;28;20053;-67
2022/12/25 11:26:13;;;;;;;11.57;2.33;;;20.30;57.80;;;;;;5049887;28;20037;-61
2022/12/25 11:28:39;;;;;;;12.55;2.20;;;20.40;58.30;;;;;;5048647;28;20575;-63
2022/12/25 11:31:18;;;;;;;9.70;1.98;;;20.40;58.30;;;;;;5061845;28;20380;-60
2022/12/25 11:33:51;;;;;;;5.03;1.90;;;20.40;58.50;;;;;;5070482;28;20048;-63
2022/12/25 11:36:24;;;;;;;16.15;2.53;;;20.50;58.90;;;;;;5071188;28;20044;-63
2022/12/25 11:38:50;;;;;;;10.02;2.28;;;20.50;59.10;;;;;;5071220;28;20052;-63
2022/12/25 11:41:19;;;;;;;11.38;2.00;;;20.50;59.20;;;;;;5069196;28;20048;-60
2022/12/25 11:43:52;;;;;;;10.18;2.08;;;20.50;59.40;;;;;;5070873;28;20048;-61
2022/12/25 11:46:37;;;;;;;16.08;2.08;;;20.50;59.50;;;;;;5070690;28;20051;-62
2022/12/25 11:49:05;;;;;;;14.35;2.30;;;20.50;59.60;;;;;;5071250;28;20468;-62
2022/12/25 11:51:36;;;;;;;17.33;2.63;;;20.50;59.80;;;;;;5072296;28;20044;-60
2022/12/25 11:54:15;;;;;;;15.93;2.00;;;20.50;60.00;;;;;;5072211;28;20055;-64
2022/12/25 11:56:41;;;;;;;11.68;1.88;;;20.60;60.10;;;;;;5070081;28;20090;-57
2022/12/25 11:59:29;;;;;;;15.23;2.95;;;20.50;60.00;;;;;;5070843;28;20135;-63
2022/12/25 12:01:57;;;;;;;15.10;2.25;;;20.60;61.00;;;;;;5071813;28;20072;-61
2022/12/25 12:04:35;;;;;;;;;;;20.60;60.40;;;;;;5036171;28;20057;-62
2022/12/25 12:07:24;;;;;;;10.40;2.10;;;20.60;60.60;;;;;;5050791;28;19920;-61
2022/12/25 12:09:50;;;;;;;16.52;2.22;;;20.60;60.50;;;;;;5052005;28;20048;-62
2022/12/25 12:12:43;;;;;;;13.38;2.80;;;20.60;60.70;;;;;;5050335;28;20044;-62
2022/12/25 12:15:28;;;;;;;11.27;1.83;;;20.60;61.20;;;;;;5051172;28;20057;-65
2022/12/25 12:17:54;;;;;;;11.02;2.30;;;20.60;61.30;;;;;;5034607;28;20041;-61
2022/12/25 12:20:26;;;;;;;12.20;2.05;;;20.60;61.40;;;;;;5050833;28;20045;-60
2022/12/25 12:22:52;;;;;;;14.63;2.00;;;20.60;61.70;;;;;;5051313;28;20045;-61
2022/12/25 12:25:18;;;;;;;13.60;2.22;;;20.70;61.70;;;;;;5050507;28;20404;-69
2022/12/25 12:27:43;;;;;;;9.88;2.28;;;20.70;61.90;;;;;;5029041;28;20095;-60
2022/12/25 12:30:26;;;;;;;15.57;2.92;;;20.70;62.00;;;;;;5048742;28;20629;-65
2022/12/25 12:32:53;;;;;;;19.10;2.10;;;20.70;62.00;;;;;;5050838;28;20053;-63
2022/12/25 12:35:27;;;;;;;13.15;2.00;;;20.70;61.90;;;;;;5032673;28;20494;-63
2022/12/25 12:38:05;;;;;;;16.42;2.45;;;20.70;61.90;;;;;;5034727;28;20652;-60
2022/12/25 12:40:41;;;;;;;10.60;2.30;;;20.70;62.10;;;;;;5049856;28;20509;-59
2022/12/25 12:43:41;;;;;;;13.35;2.25;;;20.70;62.20;;;;;;5054419;28;20120;-62
2022/12/25 12:46:20;;;;;;;15.32;2.75;;;20.70;62.30;;;;;;5048040;28;20120;-61
2022/12/25 12:48:48;;;;;;;29.33;2.95;;;20.70;62.50;;;;;;5058728;28;20526;-61
2022/12/25 12:51:28;;;;;;;11.05;3.10;;;20.70;62.60;;;;;;5049371;28;20068;-60
2022/12/25 12:54:04;;;;;;;10.38;2.38;;;20.70;62.60;;;;;;5054781;28;20037;-61
2022/12/25 12:56:30;;;;;;;13.70;2.60;;;20.70;62.80;;;;;;5054146;28;20485;-66
2022/12/25 12:58:56;;;;;;;13.50;2.28;;;20.80;62.80;;;;;;5055535;28;20045;-65
2022/12/25 13:01:40;;;;;;;10.77;2.35;;;20.80;62.70;;;;;;5052650;28;20395;-63
2022/12/25 13:04:16;;;;;;;10.20;2.17;;;20.80;62.90;;;;;;5053132;28;20059;-65
2022/12/25 13:06:46;;;;;;;13.95;2.50;;;20.80;62.90;;;;;;5043897;28;20037;-66
2022/12/25 13:09:33;;;;;;;11.98;3.00;;;20.80;62.90;;;;;;5061522;28;20086;-60
2022/12/25 13:11:59;;;;;;;13.27;3.10;;;20.80;63.30;;;;;;5054087;28;20330;-60
2022/12/25 13:14:25;;;;;;;14.38;2.90;;;20.80;63.40;;;;;;5054665;28;20063;-61
2022/12/25 13:16:51;;;;;;;13.73;2.70;;;20.80;63.70;;;;;;5056428;28;20040;-60
2022/12/25 13:19:22;;;;;;;11.55;2.05;;;20.90;64.10;;;;;;5055299;28;20125;-64
2022/12/25 13:21:59;;;;;;;12.30;2.67;;;20.90;65.00;;;;;;5055321;28;20045;-61
2022/12/25 13:24:29;;;;;;;14.55;2.67;;;20.90;64.50;;;;;;5056068;28;20051;-61
2022/12/25 13:26:54;;;;;;;13.57;2.40;;;20.90;64.60;;;;;;5056592;28;20080;-62
2022/12/25 13:29:34;;;;;;;20.42;5.10;;;20.90;64.60;;;;;;5055943;28;20072;-63
2022/12/25 13:32:01;;;;;;;13.02;2.28;;;20.90;64.70;;;;;;5055592;28;20416;-59
2022/12/25 13:34:35;;;;;;;17.08;2.75;;;20.90;64.50;;;;;;5055957;28;20051;-65
2022/12/25 13:37:13;;;;;;;21.85;2.70;;;20.90;64.60;;;;;;5056009;28;20041;-61
2022/12/25 13:39:47;;;;;;;12.43;2.00;;;20.90;64.80;;;;;;5049701;28;20127;-64
2022/12/25 13:42:15;;;;;;;17.83;2.58;;;20.90;64.90;;;;;;5054768;28;20045;-65
2022/12/25 13:44:51;;;;;;;13.32;2.65;;;20.90;64.90;;;;;;5054655;28;20049;-63
2022/12/25 13:47:26;;;;;;;13.80;2.42;;;20.90;65.20;;;;;;5051908;28;20045;-62
2022/12/25 13:49:54;;;;;;;14.98;2.50;;;20.90;65.10;;;;;;5054439;28;20053;-63
2022/12/25 13:52:39;;;;;;;9.93;2.40;;;20.90;65.20;;;;;;5055811;28;20542;-63
2022/12/25 13:55:12;;;;;;;13.25;2.40;;;20.90;65.40;;;;;;5055833;28;20049;-64
2022/12/25 13:57:45;;;;;;;15.95;2.90;;;20.90;65.50;;;;;;5056353;28;20052;-65
2022/12/25 14:00:27;;;;;;;13.52;2.30;;;20.90;65.50;;;;;;5055289;28;20041;-63
2022/12/25 14:02:53;;;;;;;14.70;2.08;;;20.90;65.70;;;;;;5054172;28;20127;-62
2022/12/25 14:05:37;;;;;;;18.08;2.30;;;20.90;65.70;;;;;;5055462;28;20080;-61
2022/12/25 14:08:11;;;;;;;12.13;2.85;;;20.90;65.90;;;;;;5054945;28;20037;-64
2022/12/25 14:10:37;;;;;;;13.23;2.17;;;20.90;65.80;;;;;;5053697;28;20451;-62
2022/12/25 14:13:04;;;;;;;12.00;2.88;;;20.90;65.60;;;;;;5052780;28;20148;-68
2022/12/25 14:15:31;;;;;;;9.18;3.08;;;20.90;65.70;;;;;;5052402;28;20126;-65
2022/12/25 14:17:56;;;;;;;14.63;2.80;;;20.90;65.80;;;;;;5052989;28;20119;-66
2022/12/25 14:20:27;;;;;;;13.20;2.28;;;20.90;65.80;;;;;;5054016;28;20045;-62
2022/12/25 14:22:53;;;;;;;23.70;3.25;;;20.80;65.80;;;;;;5053493;28;20464;-62
2022/12/25 14:25:20;;;;;;;15.45;2.65;;;20.80;65.90;;;;;;5052898;28;20431;-61
2022/12/25 14:27:51;;;;;;;17.00;2.50;;;20.80;66.00;;;;;;5052160;28;20132;-62
2022/12/25 14:30:17;;;;;;;14.38;2.25;;;20.80;66.30;;;;;;5054038;28;20045;-61
2022/12/25 14:32:45;;;;;;;22.75;2.60;;;20.80;66.30;;;;;;5054363;28;20044;-62
2022/12/25 14:35:10;;;;;;;14.55;2.88;;;20.90;66.50;;;;;;5051455;28;20045;-62
2022/12/25 14:37:37;;;;;;;19.35;2.95;;;20.90;66.60;;;;;;5053848;28;20056;-63